Wetterverlauf

Letzte Wetterlage 29.07.2014 10:19
Wetterdiagramm
Tabellarische Darstellung
Datum Temperatur Windchill Feuchte Luftdruck Windrichtung Windstärke Niederschlag
29.07.2014 10:19 16,3 °C 16,3 °C 81 % -- 0.0 0,00 mm
29.07.2014 10:04 16,2 °C 16,2 °C 82 % -- 0.0 0,00 mm
29.07.2014 09:49 16,0 °C 16,0 °C 83 % -- 0.0 0,00 mm
29.07.2014 09:34 15,7 °C 15,7 °C 83 % -- 0.0 0,00 mm
29.07.2014 09:19 15,4 °C 15,4 °C 83 % -- 0.0 0,00 mm
29.07.2014 09:04 15,2 °C 15,2 °C 84 % -- 0.0 0,00 mm
29.07.2014 08:49 15,2 °C 15,2 °C 84 % -- 0.0 0,00 mm
29.07.2014 08:34 15,2 °C 15,2 °C 84 % -- 0.0 0,00 mm
29.07.2014 08:19 15,4 °C 15,4 °C 84 % -- 0.0 0,00 mm
29.07.2014 08:04 15,3 °C 15,3 °C 84 % -- 0.0 0,00 mm
29.07.2014 07:49 15,3 °C 15,3 °C 84 % -- 0.0 0,00 mm
29.07.2014 07:34 15,3 °C 15,3 °C 84 % -- 0.0 0,00 mm
29.07.2014 07:19 15,2 °C 15,2 °C 84 % -- 0.0 0,00 mm
29.07.2014 07:04 15,2 °C 15,2 °C 84 % -- 0.0 0,00 mm
29.07.2014 06:49 15,1 °C 15,1 °C 84 % -- 0.0 0,00 mm
29.07.2014 06:34 15,0 °C 15,0 °C 84 % -- 0.0 0,00 mm
29.07.2014 06:19 15,0 °C 15,0 °C 84 % -- 0.0 0,00 mm
29.07.2014 06:04 15,0 °C 15,0 °C 84 % -- 0.0 0,00 mm
29.07.2014 05:49 15,1 °C 15,1 °C 84 % -- 0.0 0,00 mm
29.07.2014 05:34 15,1 °C 15,1 °C 84 % -- 0.0 0,00 mm
29.07.2014 05:19 15,1 °C 15,1 °C 84 % -- 0.0 0,00 mm
29.07.2014 05:04 15,2 °C 15,2 °C 84 % -- 0.0 0,00 mm
29.07.2014 04:49 15,2 °C 15,2 °C 84 % -- 0.0 0,00 mm
29.07.2014 04:34 15,2 °C 15,2 °C 84 % -- 0.0 0,00 mm
29.07.2014 04:19 15,2 °C 15,2 °C 84 % -- 0.0 0,00 mm
Empfehlen Sie wetter.com
| Mehr
Neue Wetterwarnung

Neue Niederschlagsmeldung
Neue Meldung
Regen Liveticker
    sehr starker Regen/Gewitter
    starker Regen/Gewitter
    mäßiger bis starker Regen
    mäßiger Regen
    leichter bis mäßiger Regen
    kein Regen